Time;durP1;ratioP1;P1;durP2;ratioP2;P2;SDS_P1;SDS_P2;PMS_P1;PMS_P2;Temp;Humidity;BMP_temperature;BMP_pressure;BME280_temperature;BME280_humidity;BME280_pressure;Samples;Min_cycle;Max_cycle;Signal;HPM_P1;HPM_P2
2022/09/23 00:00:47;;;;;;;9.57;5.00;;;;;;;8.55;81.04;100548.26;124760;1099;104242;-75
2022/09/23 00:03:36;;;;;;;7.97;4.20;;;;;;;8.54;80.48;100548.19;124801;1097;104210;-75
2022/09/23 00:06:10;;;;;;;8.37;4.57;;;;;;;8.53;81.02;100547.30;124734;1099;102842;-75
2022/09/23 00:08:42;;;;;;;9.47;4.70;;;;;;;8.52;80.90;100542.00;124765;1099;104323;-74
2022/09/23 00:11:16;;;;;;;10.73;4.77;;;;;;;8.50;80.64;100539.33;124719;1099;104168;-74
2022/09/23 00:13:51;;;;;;;8.88;4.78;;;;;;;8.43;80.82;100532.94;124755;1099;102871;-74
2022/09/23 00:16:24;;;;;;;10.10;4.80;;;;;;;8.45;80.85;100533.88;124771;1099;104175;-74
2022/09/23 00:18:55;;;;;;;8.60;4.77;;;;;;;8.44;80.80;100532.09;124762;1099;103578;-75
2022/09/23 00:21:27;;;;;;;9.77;4.70;;;;;;;8.44;81.09;100536.44;124727;1099;104310;-76
2022/09/23 00:23:58;;;;;;;8.97;4.93;;;;;;;8.43;80.67;100526.75;124677;1099;102765;-75
2022/09/23 00:26:29;;;;;;;9.83;4.80;;;;;;;8.43;80.99;100525.09;124811;1098;104166;-75
2022/09/23 00:29:00;;;;;;;8.67;4.67;;;;;;;8.42;81.08;100520.64;124739;1099;104220;-75
2022/09/23 00:31:32;;;;;;;8.33;4.13;;;;;;;8.42;80.99;100517.14;124755;1099;104200;-76
2022/09/23 00:34:03;;;;;;;9.50;4.33;;;;;;;8.42;80.93;100524.98;124723;1099;104236;-74
2022/09/23 00:36:34;;;;;;;8.67;4.27;;;;;;;8.41;81.32;100526.72;124745;1099;104070;-75
2022/09/23 00:39:05;;;;;;;7.70;4.30;;;;;;;8.40;81.20;100524.03;124734;1099;104070;-75
2022/09/23 00:41:37;;;;;;;7.27;4.17;;;;;;;8.40;81.22;100524.03;124756;1098;104232;-74
2022/09/23 00:44:38;;;;;;;6.37;3.80;;;;;;;8.39;80.99;100523.12;124773;1099;104274;-74
2022/09/23 00:47:16;;;;;;;8.03;4.37;;;;;;;8.34;81.54;100522.02;124819;1099;104235;-75
2022/09/23 00:49:53;;;;;;;6.73;4.00;;;;;;;8.34;81.11;100526.38;124715;1099;102835;-75
2022/09/23 00:52:26;;;;;;;8.27;4.70;;;;;;;8.34;81.21;100523.76;124811;1098;103646;-74
2022/09/23 00:55:01;;;;;;;9.23;4.62;;;;;;;8.32;81.55;100528.00;124753;1099;104207;-75
2022/09/23 00:57:33;;;;;;;8.17;4.17;;;;;;;8.30;81.50;100532.28;124722;1099;104338;-74
2022/09/23 01:00:07;;;;;;;7.67;3.63;;;;;;;8.26;81.13;100534.75;124739;1099;104396;-75
2022/09/23 01:02:38;;;;;;;6.20;4.05;;;;;;;8.24;81.39;100539.02;124729;1099;104223;-74
2022/09/23 01:05:11;;;;;;;6.63;4.20;;;;;;;8.22;81.34;100535.42;124716;1099;104175;-75
2022/09/23 01:07:42;;;;;;;7.65;4.20;;;;;;;8.21;81.58;100538.88;124732;1099;104195;-74
2022/09/23 01:10:15;;;;;;;9.00;4.03;;;;;;;8.21;81.12;100537.97;124764;1099;104305;-74
2022/09/23 01:13:04;;;;;;;6.53;3.77;;;;;;;8.18;81.92;100535.21;124708;1099;104175;-75
2022/09/23 01:15:44;;;;;;;5.90;3.80;;;;;;;8.17;82.00;100541.28;124642;1099;104182;-74
2022/09/23 01:18:27;;;;;;;9.40;4.20;;;;;;;8.12;81.70;100537.55;124731;1099;104220;-74
2022/09/23 01:21:09;;;;;;;6.23;3.93;;;;;;;8.08;82.00;100541.74;124714;1098;102817;-75
2022/09/23 01:24:23;;;;;;;6.73;3.70;;;;;;;8.06;81.89;100538.17;124738;1099;102200;-74
2022/09/23 01:27:14;;;;;;;7.03;3.70;;;;;;;8.05;81.69;100531.15;124590;1098;119644;-74
2022/09/23 01:30:11;;;;;;;6.93;3.90;;;;;;;8.04;82.00;100534.58;124696;1099;102795;-74
2022/09/23 01:32:55;;;;;;;6.83;3.90;;;;;;;8.03;82.20;100530.19;124730;1099;104207;-74
2022/09/23 01:35:34;;;;;;;6.25;3.70;;;;;;;8.01;81.94;100543.19;124774;1099;104653;-74
2022/09/23 01:38:14;;;;;;;6.50;3.70;;;;;;;7.99;82.18;100544.81;124742;1098;104172;-75
2022/09/23 01:40:53;;;;;;;7.90;3.57;;;;;;;7.98;83.01;100542.13;124783;1099;104182;-74
2022/09/23 01:43:31;;;;;;;7.53;3.67;;;;;;;7.96;82.78;100547.28;124652;1099;104326;-73
2022/09/23 01:46:06;;;;;;;6.33;3.70;;;;;;;7.94;82.40;100545.44;124819;1098;102971;-75
2022/09/23 01:48:45;;;;;;;10.00;3.90;;;;;;;7.92;82.81;100546.25;124852;1099;104172;-75
2022/09/23 01:51:22;;;;;;;10.10;3.87;;;;;;;7.91;83.13;100560.13;124825;1099;102867;-75
2022/09/23 01:54:02;;;;;;;6.00;3.50;;;;;;;7.88;83.13;100559.09;124810;1098;104399;-75
2022/09/23 01:56:38;;;;;;;6.37;3.67;;;;;;;7.87;82.79;100554.72;124819;1099;104201;-75
2022/09/23 01:59:15;;;;;;;6.73;3.60;;;;;;;7.84;82.66;100554.57;124890;1099;104265;-76
2022/09/23 02:01:54;;;;;;;6.70;3.60;;;;;;;7.84;83.02;100559.80;124886;1099;104188;-76
2022/09/23 02:04:31;;;;;;;6.80;3.80;;;;;;;7.84;83.03;100555.45;124853;1099;102192;-75
2022/09/23 02:07:07;;;;;;;6.00;3.60;;;;;;;7.84;82.98;100552.84;124897;1099;102763;-76
2022/09/23 02:09:43;;;;;;;5.37;3.80;;;;;;;7.86;83.21;100563.37;124881;1099;104328;-75
2022/09/23 02:12:19;;;;;;;5.17;3.70;;;;;;;7.88;83.20;100559.09;124962;1098;102791;-76
2022/09/23 02:14:55;;;;;;;7.03;3.70;;;;;;;7.89;82.67;100561.78;124906;1099;104192;-75
2022/09/23 02:17:33;;;;;;;8.07;3.90;;;;;;;7.92;83.34;100558.44;124871;1099;104169;-75
2022/09/23 02:20:07;;;;;;;7.00;3.80;;;;;;;7.97;82.61;100553.42;124866;1099;102778;-75
2022/09/23 02:22:49;;;;;;;5.90;3.67;;;;;;;7.99;82.96;100552.66;124725;1099;104319;-75
2022/09/23 02:25:24;;;;;;;7.07;3.90;;;;;;;8.01;83.33;100552.72;124868;1099;104238;-75
2022/09/23 02:28:00;;;;;;;8.33;4.10;;;;;;;8.04;83.20;100551.17;124863;1099;104261;-75
2022/09/23 02:30:37;;;;;;;5.27;3.80;;;;;;;8.08;82.94;100554.81;124845;1099;104198;-75
2022/09/23 02:33:18;;;;;;;8.60;4.07;;;;;;;8.09;83.70;100564.45;124876;1099;104235;-75
2022/09/23 02:35:55;;;;;;;5.73;3.77;;;;;;;8.09;82.97;100561.84;124866;1099;102341;-75
2022/09/23 02:38:34;;;;;;;7.53;3.87;;;;;;;8.10;83.66;100563.61;124795;1099;102414;-76
2022/09/23 02:41:14;;;;;;;7.90;3.67;;;;;;;8.09;83.46;100561.84;124877;1098;104162;-75
2022/09/23 02:43:52;;;;;;;8.27;4.00;;;;;;;8.11;83.89;100562.80;124859;1099;104204;-75
2022/09/23 02:46:24;;;;;;;9.73;4.10;;;;;;;8.10;83.22;100564.52;124872;1098;104848;-75
2022/09/23 02:49:00;;;;;;;6.60;3.70;;;;;;;8.09;83.39;100565.34;124864;1099;107019;-75
2022/09/23 02:51:37;;;;;;;7.17;3.73;;;;;;;8.09;83.95;100560.11;124816;1097;104224;-75
2022/09/23 02:54:13;;;;;;;7.30;4.10;;;;;;;8.09;84.11;100560.11;124917;1099;104201;-76
2022/09/23 02:56:47;;;;;;;8.75;4.30;;;;;;;8.12;84.08;100569.83;124873;1099;104175;-76
2022/09/23 02:59:20;;;;;;;9.23;3.90;;;;;;;8.14;84.12;100570.78;124885;1099;104245;-76
2022/09/23 03:02:13;;;;;;;6.10;3.70;;;;;;;8.16;83.58;100568.23;124786;1098;104343;-76
2022/09/23 03:04:55;;;;;;;5.10;3.70;;;;;;;8.18;84.20;100567.50;124901;1099;104275;-75
2022/09/23 03:07:35;;;;;;;5.20;3.43;;;;;;;8.21;83.61;100564.11;124764;1099;104182;-76
2022/09/23 03:10:16;;;;;;;9.73;3.73;;;;;;;8.25;84.31;100561.70;124954;1099;102232;-75
2022/09/23 03:12:53;;;;;;;6.27;3.43;;;;;;;8.28;83.97;100566.19;124862;1099;104233;-76
2022/09/23 03:15:34;;;;;;;6.80;3.77;;;;;;;8.28;83.73;100569.69;124923;1099;104242;-76
2022/09/23 03:18:15;;;;;;;9.77;4.20;;;;;;;8.31;84.00;100565.45;124887;1099;102283;-76
2022/09/23 03:20:55;;;;;;;8.33;3.93;;;;;;;8.33;84.69;100572.52;124847;1099;102294;-75
2022/09/23 03:23:34;;;;;;;5.87;3.43;;;;;;;8.34;84.56;100568.20;124807;1099;102944;-77
2022/09/23 03:26:13;;;;;;;7.00;3.80;;;;;;;8.34;84.03;100569.09;124908;1098;104176;-77
2022/09/23 03:28:45;;;;;;;7.37;3.70;;;;;;;8.35;84.32;100572.59;124884;1098;104201;-76
2022/09/23 03:31:18;;;;;;;8.53;4.07;;;;;;;8.35;84.74;100569.97;124839;1099;104159;-76
2022/09/23 03:33:51;;;;;;;7.47;4.03;;;;;;;8.35;84.03;100567.36;124768;1099;102337;-76
2022/09/23 03:39:39;;;;;;;7.63;3.90;;;;;;;8.40;84.60;100573.72;124333;1101;104173;-76
2022/09/23 03:42:15;;;;;;;6.43;3.70;;;;;;;8.40;84.09;100571.09;124778;1099;102794;-76
2022/09/23 03:44:49;;;;;;;15.20;4.33;;;;;;;8.41;84.40;100578.09;124922;1098;104166;-78
2022/09/23 03:47:21;;;;;;;6.72;4.08;;;;;;;8.40;84.71;100573.72;124928;1099;104203;-75
2022/09/23 03:49:53;;;;;;;8.17;4.10;;;;;;;8.40;84.86;100571.09;124877;1099;102768;-77
2022/09/23 03:52:25;;;;;;;8.20;3.97;;;;;;;8.41;84.59;100572.87;124892;1099;102273;-76
2022/09/23 03:54:57;;;;;;;8.73;4.13;;;;;;;8.41;84.40;100572.87;124820;1099;101848;-76
2022/09/23 03:57:28;;;;;;;8.90;4.00;;;;;;;8.44;84.74;100580.89;124825;1099;102881;-76
2022/09/23 03:59:59;;;;;;;7.93;4.33;;;;;;;8.46;85.04;100581.84;124391;1099;102909;-75
2022/09/23 04:02:30;;;;;;;7.55;4.40;;;;;;;8.47;84.82;100586.26;124862;1099;102896;-76
2022/09/23 04:05:02;;;;;;;9.47;4.40;;;;;;;8.49;85.29;100584.59;124883;1098;102172;-75
2022/09/23 04:07:34;;;;;;;7.77;4.10;;;;;;;8.51;84.61;100582.97;124824;1099;104267;-77
2022/09/23 04:10:08;;;;;;;8.77;4.50;;;;;;;8.55;85.46;100577.03;125037;1099;104217;-76
2022/09/23 04:12:40;;;;;;;7.77;3.73;;;;;;;8.57;84.53;100584.95;124896;1099;102080;-76
2022/09/23 04:15:12;;;;;;;8.33;4.20;;;;;;;8.58;84.97;100579.78;125078;1098;104166;-76
2022/09/23 04:17:43;;;;;;;10.80;4.20;;;;;;;8.63;84.57;100579.98;124873;1099;104166;-76
2022/09/23 04:20:15;;;;;;;12.73;4.60;;;;;;;8.68;85.42;100570.65;124889;1099;104450;-76
2022/09/23 04:22:46;;;;;;;6.90;3.97;;;;;;;8.72;85.26;100580.40;124872;1098;102791;-76
2022/09/23 04:25:17;;;;;;;6.33;3.97;;;;;;;8.76;84.94;100578.84;124847;1099;104172;-77
2022/09/23 04:27:49;;;;;;;8.80;4.10;;;;;;;8.81;84.76;100582.55;124892;1098;102519;-77
2022/09/23 04:30:20;;;;;;;8.93;4.07;;;;;;;8.84;84.81;100590.53;124942;1099;102170;-77
2022/09/23 04:32:53;;;;;;;10.27;4.40;;;;;;;8.86;85.35;100588.86;124839;1099;104300;-76
2022/09/23 04:35:26;;;;;;;8.30;4.07;;;;;;;8.89;85.18;100582.87;124941;1099;101931;-77
2022/09/23 04:37:57;;;;;;;8.40;3.97;;;;;;;8.91;84.90;100587.36;124932;1099;104173;-77
2022/09/23 04:40:28;;;;;;;7.65;3.80;;;;;;;8.93;85.43;100585.70;124851;1099;104309;-77
2022/09/23 04:42:59;;;;;;;8.67;4.00;;;;;;;8.94;85.80;100584.88;124713;1099;104213;-75
2022/09/23 04:45:31;;;;;;;6.97;3.70;;;;;;;8.95;85.04;100578.80;124755;1099;104304;-76
2022/09/23 04:48:02;;;;;;;9.13;4.60;;;;;;;8.96;85.38;100585.83;124785;1099;104249;-75
2022/09/23 04:50:34;;;;;;;9.73;4.20;;;;;;;8.97;85.34;100587.59;124770;1099;104172;-76
2022/09/23 04:53:06;;;;;;;10.37;4.30;;;;;;;8.97;85.79;100587.59;124801;1099;104322;-75
2022/09/23 04:55:38;;;;;;;8.17;4.37;;;;;;;8.99;85.42;100592.90;124729;1098;104278;-76
2022/09/23 04:58:12;;;;;;;6.40;4.05;;;;;;;8.98;85.48;100593.75;125623;1098;105624;-76
2022/09/23 05:00:43;;;;;;;7.87;4.20;;;;;;;8.99;85.87;100592.90;124776;1099;102823;-76
2022/09/23 05:03:15;;;;;;;8.80;4.17;;;;;;;8.99;85.57;100591.20;124682;1098;103578;-76
2022/09/23 05:05:46;;;;;;;8.60;4.27;;;;;;;8.99;85.31;100593.81;124673;1099;102370;-75
2022/09/23 05:08:18;;;;;;;8.67;3.97;;;;;;;9.00;86.20;100602.55;124763;1099;104219;-75
2022/09/23 05:10:49;;;;;;;9.53;4.20;;;;;;;9.01;86.09;100599.12;125060;1099;104169;-74
2022/09/23 05:13:20;;;;;;;10.13;4.33;;;;;;;9.03;86.18;100601.80;124729;1099;104242;-75
2022/09/23 05:15:56;;;;;;;10.90;4.50;;;;;;;9.04;85.75;100591.40;124761;1099;104237;-76
2022/09/23 05:18:32;;;;;;;10.17;4.50;;;;;;;9.08;85.78;100600.27;124882;1099;104271;-78
2022/09/23 05:21:10;;;;;;;11.00;4.40;;;;;;;9.12;85.76;100599.59;125597;1099;104689;-80
2022/09/23 05:23:43;;;;;;;9.23;4.63;;;;;;;9.16;85.93;100604.10;125003;1099;104060;-76
2022/09/23 05:26:15;;;;;;;11.00;4.27;;;;;;;9.21;85.52;100604.30;124725;1099;104175;-75
2022/09/23 05:28:48;;;;;;;14.80;4.50;;;;;;;9.28;86.37;100608.98;124915;1099;104310;-78
2022/09/23 05:31:21;;;;;;;6.97;4.35;;;;;;;9.34;86.32;100598.77;124846;1099;104217;-75
2022/09/23 05:33:56;;;;;;;7.93;4.37;;;;;;;9.42;85.61;100601.71;124739;1099;104219;-75
2022/09/23 05:36:31;;;;;;;10.10;4.80;;;;;;;9.53;85.81;100605.66;124751;1098;104242;-75
2022/09/23 05:39:07;;;;;;;11.15;4.80;;;;;;;9.65;85.69;100603.55;124811;1099;102068;-77
2022/09/23 05:41:48;;;;;;;10.83;4.57;;;;;;;9.80;86.20;100605.00;124812;1099;104162;-76
2022/09/23 05:44:20;;;;;;;12.83;5.50;;;;;;;9.93;86.39;100609.03;125252;1099;104198;-78
2022/09/23 05:46:51;;;;;;;9.43;4.40;;;;;;;10.03;85.57;100604.19;125006;1099;104235;-78
2022/09/23 05:49:22;;;;;;;11.17;4.93;;;;;;;10.15;85.90;100609.03;125038;1099;102344;-77
2022/09/23 05:51:57;;;;;;;9.30;4.30;;;;;;;10.26;85.97;100597.22;124760;1099;104232;-77
2022/09/23 05:54:28;;;;;;;10.90;4.57;;;;;;;10.33;85.83;100598.41;124763;1098;104255;-76
2022/09/23 05:57:02;;;;;;;13.47;4.97;;;;;;;10.41;85.95;100602.20;124786;1099;102491;-78
2022/09/23 05:59:37;;;;;;;17.97;8.57;;;;;;;10.50;85.70;100601.67;125686;1099;104166;-78
2022/09/23 06:02:13;;;;;;;15.40;7.80;;;;;;;10.56;85.82;100604.49;125566;1099;104232;-77
2022/09/23 06:04:45;;;;;;;12.20;4.77;;;;;;;10.59;85.77;100607.23;125571;1099;104261;-77
2022/09/23 06:07:17;;;;;;;12.53;5.00;;;;;;;10.65;85.46;100611.83;125597;1099;104220;-77
2022/09/23 06:09:52;;;;;;;11.67;5.17;;;;;;;10.69;85.81;100616.36;125651;1099;104166;-76
2022/09/23 06:12:25;;;;;;;12.20;6.28;;;;;;;10.70;85.47;100610.25;125572;1099;103146;-79
2022/09/23 06:14:57;;;;;;;10.60;4.50;;;;;;;10.72;85.10;100613.85;125563;1099;104377;-77
2022/09/23 06:17:37;;;;;;;10.47;4.20;;;;;;;10.73;85.56;100626.11;125545;1099;104220;-77
2022/09/23 06:20:10;;;;;;;7.42;4.12;;;;;;;10.78;85.38;100621.03;124751;1099;104466;-76
2022/09/23 06:22:46;;;;;;;10.72;4.30;;;;;;;10.85;84.92;100619.55;124759;1099;104245;-77
2022/09/23 06:25:21;;;;;;;7.37;3.83;;;;;;;10.89;85.20;100624.05;124703;1099;104285;-77
2022/09/23 06:27:56;;;;;;;8.65;4.30;;;;;;;10.95;85.00;100619.03;124817;1099;102580;-77
2022/09/23 06:30:29;;;;;;;8.83;4.27;;;;;;;11.06;85.15;100619.41;124705;1099;104232;-77
2022/09/23 06:33:17;;;;;;;9.68;4.40;;;;;;;11.16;84.81;100624.17;124688;1099;104431;-77
2022/09/23 06:35:48;;;;;;;14.97;4.53;;;;;;;11.24;85.02;100634.94;125571;1099;104159;-77
2022/09/23 06:38:23;;;;;;;7.80;4.27;;;;;;;11.29;84.77;100626.36;125529;1098;104211;-77
2022/09/23 06:40:54;;;;;;;;;;;;;;;11.33;84.40;100627.38;124792;1099;104233;-77
2022/09/23 06:43:28;;;;;;;7.40;4.00;;;;;;;11.35;84.61;100628.32;124802;1099;104158;-76
2022/09/23 06:46:06;;;;;;;7.97;3.80;;;;;;;11.35;84.00;100630.95;124776;1099;104305;-74
2022/09/23 06:48:39;;;;;;;9.73;3.90;;;;;;;11.37;84.33;100625.75;124751;1099;104242;-77
2022/09/23 06:51:18;;;;;;;9.07;3.87;;;;;;;11.45;84.10;100619.92;124773;1099;103354;-76
2022/09/23 06:53:50;;;;;;;7.77;4.10;;;;;;;11.46;83.99;100611.17;124630;1099;108132;-77
2022/09/23 06:56:25;;;;;;;7.25;3.90;;;;;;;11.60;84.06;100613.39;124802;1099;104530;-77
2022/09/23 06:58:57;;;;;;;6.17;3.60;;;;;;;11.65;83.76;100619.69;124717;1099;104201;-77
2022/09/23 07:01:28;;;;;;;9.67;4.60;;;;;;;11.63;83.71;100618.75;124265;1099;102919;-77
2022/09/23 07:04:00;;;;;;;9.73;4.33;;;;;;;11.62;83.67;100622.20;124687;1099;104207;-76
2022/09/23 07:06:31;;;;;;;7.00;3.93;;;;;;;11.58;83.41;100620.34;124687;1099;104232;-76
2022/09/23 07:09:03;;;;;;;6.67;4.00;;;;;;;11.60;83.63;100618.65;124820;1099;104258;-76
2022/09/23 07:11:36;;;;;;;6.75;3.67;;;;;;;11.61;83.36;100620.41;124780;1098;102363;-77
2022/09/23 07:14:09;;;;;;;7.50;3.93;;;;;;;11.71;83.46;100625.14;125994;1098;102649;-76
2022/09/23 07:16:40;;;;;;;10.67;4.43;;;;;;;11.86;83.57;100617.77;124728;1098;104179;-76
2022/09/23 07:19:12;;;;;;;7.20;3.70;;;;;;;12.01;83.02;100621.75;124679;1099;102910;-76
2022/09/23 07:21:44;;;;;;;7.67;3.77;;;;;;;12.24;83.31;100609.32;124829;1098;102292;-75
2022/09/23 07:24:18;;;;;;;9.28;4.47;;;;;;;12.44;83.01;100612.55;124305;1099;111068;-76
2022/09/23 07:26:49;;;;;;;7.43;3.50;;;;;;;12.56;82.07;100609.41;124725;1099;102224;-76
2022/09/23 07:29:20;;;;;;;7.07;3.47;;;;;;;12.61;81.55;100610.42;124788;1099;102970;-77
2022/09/23 07:31:53;;;;;;;5.43;3.60;;;;;;;12.71;81.59;100611.58;124308;1099;104188;-77
2022/09/23 07:34:31;;;;;;;6.43;3.57;;;;;;;12.81;81.35;100608.37;124803;1099;104060;-78
2022/09/23 07:37:05;;;;;;;7.97;3.30;;;;;;;12.95;81.63;100609.64;124827;1099;104208;-77
2022/09/23 07:39:40;;;;;;;8.30;3.97;;;;;;;12.90;80.83;100603.36;124842;1098;104166;-79
2022/09/23 07:42:16;;;;;;;21.83;10.83;;;;;;;13.02;80.61;100610.69;124748;1099;101901;-77
2022/09/23 07:44:50;;;;;;;9.50;4.57;;;;;;;13.02;79.98;100615.95;124757;1099;107789;-77
2022/09/23 07:47:27;;;;;;;7.60;3.60;;;;;;;13.03;79.79;100615.12;124807;1098;104214;-76
2022/09/23 07:50:00;;;;;;;8.00;3.63;;;;;;;13.11;80.06;100605.67;125939;1098;102279;-76
2022/09/23 07:52:37;;;;;;;7.70;3.70;;;;;;;13.23;79.48;100604.20;124839;1099;104186;-75
2022/09/23 07:55:10;;;;;;;7.47;3.10;;;;;;;13.28;79.36;100602.61;124720;1099;104208;-75
2022/09/23 07:57:46;;;;;;;5.35;3.40;;;;;;;13.19;78.57;100605.88;124713;1099;102794;-77
2022/09/23 08:00:21;;;;;;;4.27;2.73;;;;;;;13.08;78.41;100602.95;124757;1099;104219;-75
2022/09/23 08:02:54;;;;;;;7.83;3.30;;;;;;;13.07;78.81;100600.28;124750;1098;104217;-75
2022/09/23 08:05:25;;;;;;;3.30;2.70;;;;;;;13.15;78.52;100604.03;124762;1099;104166;-75
2022/09/23 08:07:59;;;;;;;8.00;3.40;;;;;;;13.25;77.92;100591.98;124799;1099;102087;-76
2022/09/23 08:10:31;;;;;;;3.27;2.70;;;;;;;13.36;78.40;100597.58;124730;1098;104189;-75
2022/09/23 08:13:05;;;;;;;5.93;3.10;;;;;;;13.45;78.34;100598.69;124726;1099;104160;-75
2022/09/23 08:15:39;;;;;;;5.17;3.23;;;;;;;13.52;77.13;100594.45;124665;1098;111353;-75
2022/09/23 08:18:10;;;;;;;6.93;3.13;;;;;;;13.58;77.25;100593.73;124703;1099;104618;-75
2022/09/23 08:20:46;;;;;;;3.70;2.77;;;;;;;13.57;77.07;100591.94;124274;1099;104268;-76
2022/09/23 08:23:19;;;;;;;8.70;3.37;;;;;;;13.53;76.33;100584.83;124777;1099;104188;-76
2022/09/23 08:26:02;;;;;;;2.77;2.50;;;;;;;13.60;75.28;100590.29;124646;1099;102314;-76
2022/09/23 08:28:35;;;;;;;6.22;2.90;;;;;;;13.72;75.21;100589.68;124802;1099;104188;-76
2022/09/23 08:31:07;;;;;;;5.50;2.87;;;;;;;13.82;74.43;100588.14;124770;1099;104178;-75
2022/09/23 08:33:39;;;;;;;4.50;2.90;;;;;;;13.92;73.34;100584.88;124792;1099;104290;-76
2022/09/23 08:36:11;;;;;;;4.43;2.70;;;;;;;13.91;72.51;100572.54;124775;1099;102490;-75
2022/09/23 08:38:43;;;;;;;5.57;3.27;;;;;;;13.96;73.46;100585.84;124826;1098;102906;-76
2022/09/23 08:41:27;;;;;;;5.27;2.90;;;;;;;14.02;72.54;100576.34;124832;1099;102128;-77
2022/09/23 08:44:10;;;;;;;3.07;2.60;;;;;;;14.05;72.78;100571.98;124501;1099;104197;-77
2022/09/23 08:46:53;;;;;;;3.23;2.80;;;;;;;14.13;70.99;100573.03;125293;1099;104222;-77
2022/09/23 08:49:38;;;;;;;4.43;2.90;;;;;;;14.16;70.96;100578.38;125587;1098;103276;-76
2022/09/23 08:52:19;;;;;;;4.97;2.90;;;;;;;14.21;70.01;100584.67;125627;1099;102239;-76
2022/09/23 08:54:58;;;;;;;4.60;2.87;;;;;;;14.11;71.01;100574.76;125444;1099;104227;-75
2022/09/23 08:58:06;;;;;;;5.33;3.37;;;;;;;13.97;70.78;100571.80;124872;1099;101867;-74
2022/09/23 09:00:45;;;;;;;6.23;3.23;;;;;;;13.91;70.41;100591.00;126081;1098;102123;-76
2022/09/23 09:10:46;;;;;;;5.40;2.80;;;;;;;14.02;70.08;100578.06;125478;1101;104254;-75
2022/09/23 09:13:30;;;;;;;3.47;2.90;;;;;;;14.00;69.60;100580.67;125968;1101;102287;-74
2022/09/23 09:16:38;;;;;;;5.67;2.83;;;;;;;14.07;69.77;100588.72;124301;1102;102336;-77
2022/09/23 09:19:24;;;;;;;5.20;3.10;;;;;;;14.09;68.52;100565.92;124218;1102;102117;-77
2022/09/23 09:21:56;;;;;;;5.13;2.87;;;;;;;14.16;69.07;100578.38;124159;1102;106999;-74
2022/09/23 09:24:35;;;;;;;4.47;2.83;;;;;;;14.31;67.49;100583.12;124248;1102;104254;-76
2022/09/23 09:27:15;;;;;;;4.33;2.83;;;;;;;14.35;69.27;100575.30;124077;1102;104162;-77
2022/09/23 09:29:55;;;;;;;5.35;3.02;;;;;;;14.38;68.36;100583.28;124926;1102;104197;-75
2022/09/23 09:32:39;;;;;;;4.47;3.00;;;;;;;14.34;66.26;100596.38;124491;1102;102297;-77
2022/09/23 09:35:25;;;;;;;7.42;2.92;;;;;;;14.27;66.99;100587.41;124212;1102;104262;-76
2022/09/23 09:37:58;;;;;;;5.37;2.80;;;;;;;14.36;67.12;100595.53;124259;1102;104195;-77
2022/09/23 09:40:47;;;;;;;4.10;2.93;;;;;;;14.44;66.89;100584.27;124262;1102;104169;-77
2022/09/23 09:43:25;;;;;;;4.47;3.17;;;;;;;14.42;67.09;100586.88;124284;1102;104178;-75
2022/09/23 09:46:17;;;;;;;3.70;2.90;;;;;;;14.37;65.71;100592.05;124847;1102;104312;-78
2022/09/23 09:48:55;;;;;;;7.63;3.20;;;;;;;14.23;65.79;100598.78;124962;1102;104217;-75
2022/09/23 09:51:43;;;;;;;7.70;3.40;;;;;;;14.16;66.95;100595.12;124119;1103;104236;-77
2022/09/23 09:54:30;;;;;;;4.67;3.00;;;;;;;14.22;66.86;100590.83;124055;1105;104261;-77
2022/09/23 09:57:13;;;;;;;6.13;3.40;;;;;;;14.32;66.51;100592.80;124129;1102;104190;-75
2022/09/23 09:59:52;;;;;;;5.83;3.20;;;;;;;14.42;66.44;100593.91;124140;1102;104337;-76
2022/09/23 10:02:33;;;;;;;6.23;3.20;;;;;;;14.45;67.23;100584.30;124076;1105;104214;-75
2022/09/23 10:05:07;;;;;;;4.80;3.13;;;;;;;14.51;66.22;100591.47;124035;1105;104191;-76
2022/09/23 10:07:39;;;;;;;6.50;2.90;;;;;;;14.58;66.53;100589.84;124058;1101;104242;-77
2022/09/23 10:10:22;;;;;;;7.03;3.20;;;;;;;14.60;65.96;100591.70;125560;1102;102271;-76
2022/09/23 10:12:55;;;;;;;4.83;2.98;;;;;;;14.62;65.49;100583.81;124212;1102;118845;-76
2022/09/23 10:15:33;;;;;;;4.00;2.90;;;;;;;14.73;65.49;100576.98;124282;1105;104184;-76
2022/09/23 10:18:18;;;;;;;3.67;2.87;;;;;;;14.95;65.65;100580.05;124178;1102;102934;-77
2022/09/23 10:20:49;;;;;;;;;;;;;;;15.00;64.18;100581.02;124138;1103;104262;-78
2022/09/23 10:23:32;;;;;;;5.27;3.37;;;;;;;14.90;64.62;100579.95;124174;1102;104240;-77
2022/09/23 10:26:11;;;;;;;6.60;3.23;;;;;;;14.85;63.68;100585.15;124080;1103;102794;-76
2022/09/23 10:28:49;;;;;;;4.90;3.10;;;;;;;14.88;64.55;100585.21;124090;1105;102883;-77
2022/09/23 10:31:29;;;;;;;6.23;3.37;;;;;;;15.13;63.09;100583.03;124157;1106;104217;-76
2022/09/23 10:34:03;;;;;;;9.67;3.10;;;;;;;15.30;64.36;100580.67;124097;1102;104198;-76
2022/09/23 10:36:33;;;;;;;;;;;;;;;15.28;63.19;100577.12;124141;1102;104337;-76
2022/09/23 10:48:08;;;;;;;4.43;2.70;;;;;;;15.09;63.19;100562.69;124117;1103;104316;-77
2022/09/23 10:50:47;;;;;;;7.40;2.97;;;;;;;15.19;62.27;100561.09;124044;1105;102133;-77
2022/09/23 10:53:37;;;;;;;3.42;2.77;;;;;;;15.40;62.90;100561.47;124013;1102;102831;-77
2022/09/23 10:56:31;;;;;;;6.97;2.90;;;;;;;15.62;62.87;100561.83;124007;1105;104244;-76
2022/09/23 10:59:47;;;;;;;5.13;2.97;;;;;;;15.57;60.55;100553.81;124063;1102;104232;-74
2022/09/23 11:02:35;;;;;;;5.17;2.93;;;;;;;15.49;60.58;100557.19;123901;1102;104245;-75
2022/09/23 11:05:35;;;;;;;8.07;3.00;;;;;;;15.36;61.46;100559.63;124093;1102;104245;-76
2022/09/23 11:08:21;;;;;;;5.20;3.00;;;;;;;15.26;60.60;100563.88;123977;1100;104223;-74
2022/09/23 11:11:14;;;;;;;9.27;3.17;;;;;;;15.12;61.08;100556.58;123949;1102;104180;-73
2022/09/23 11:14:03;;;;;;;3.60;3.10;;;;;;;15.02;61.76;100551.12;124025;1102;104159;-75
2022/09/23 11:16:49;;;;;;;10.20;5.07;;;;;;;15.05;61.90;100544.98;124065;1102;104191;-75
2022/09/23 11:19:47;;;;;;;4.63;3.20;;;;;;;15.17;60.74;100547.85;124086;1102;104162;-75
2022/09/23 11:22:36;;;;;;;5.00;3.20;;;;;;;15.22;60.29;100553.22;124061;1101;104399;-76
2022/09/23 11:25:22;;;;;;;5.27;3.43;;;;;;;15.03;59.52;100539.67;124090;1102;104092;-74
2022/09/23 11:28:08;;;;;;;5.07;3.77;;;;;;;14.83;60.45;100535.78;124012;1102;104271;-74
2022/09/23 11:30:49;;;;;;;7.00;3.60;;;;;;;14.78;60.35;100537.45;123988;1102;104203;-75
2022/09/23 11:33:39;;;;;;;5.90;3.60;;;;;;;14.79;61.56;100524.27;124140;1102;104232;-74
2022/09/23 11:36:24;;;;;;;4.17;3.40;;;;;;;14.92;61.32;100525.38;124015;1102;102701;-73
2022/09/23 11:39:09;;;;;;;6.10;3.40;;;;;;;15.03;61.09;100517.66;124213;1102;102881;-74
2022/09/23 11:41:53;;;;;;;9.20;3.60;;;;;;;15.01;61.65;100517.63;124189;1102;104678;-74
2022/09/23 11:44:36;;;;;;;4.47;3.20;;;;;;;14.92;61.03;100525.38;124022;1102;103576;-74
2022/09/23 11:47:10;;;;;;;;;;;;;;;14.85;61.64;100521.75;124076;1102;102298;-75
2022/09/23 11:49:47;;;;;;;6.13;3.50;;;;;;;14.89;61.14;100515.64;124030;1105;104341;-74
2022/09/23 11:52:22;;;;;;;12.93;3.97;;;;;;;14.93;60.78;100521.89;124012;1105;104175;-74
2022/09/23 11:54:57;;;;;;;9.43;3.70;;;;;;;15.03;61.54;100521.17;124098;1102;104264;-74
2022/09/23 11:57:39;;;;;;;7.57;3.90;;;;;;;15.19;59.99;100518.80;124060;1102;104166;-75
2022/09/23 12:00:19;;;;;;;5.40;3.30;;;;;;;15.27;60.42;100519.84;124120;1102;102596;-76
2022/09/23 12:03:00;;;;;;;5.40;3.20;;;;;;;15.28;59.44;100525.13;124150;1102;103475;-76
2022/09/23 12:05:45;;;;;;;4.53;3.50;;;;;;;15.29;58.48;100526.04;124193;1102;107111;-75
2022/09/23 12:08:34;;;;;;;5.03;3.50;;;;;;;15.22;59.37;100511.84;124889;1102;102277;-74
2022/09/23 12:11:18;;;;;;;7.23;3.33;;;;;;;15.28;59.58;100516.31;124216;1102;101854;-77
2022/09/23 12:13:56;;;;;;;5.95;3.12;;;;;;;15.27;60.15;100511.92;124717;1102;102299;-76
2022/09/23 12:16:52;;;;;;;5.43;3.37;;;;;;;15.13;58.23;100510.77;124104;1105;104394;-75